sensor_id;sensor_type;location;lat;lon;timestamp;P1;durP1;ratioP1;P2;durP2;ratioP2
16430;SDS011;8325;49.284;7.238;2023-12-20T05:02:00;3.67;;;2.90;;
16430;SDS011;8325;49.284;7.238;2023-12-20T05:06:11;5.63;;;3.80;;
16430;SDS011;8325;49.284;7.238;2023-12-20T05:10:23;3.58;;;3.10;;
16430;SDS011;8325;49.284;7.238;2023-12-20T05:14:35;4.47;;;3.47;;
16430;SDS011;8325;49.284;7.238;2023-12-20T05:18:48;6.15;;;3.63;;
16430;SDS011;8325;49.284;7.238;2023-12-20T05:23:01;4.35;;;3.65;;
16430;SDS011;8325;49.284;7.238;2023-12-20T05:27:13;4.43;;;3.50;;
16430;SDS011;8325;49.284;7.238;2023-12-20T05:31:24;5.80;;;3.08;;
16430;SDS011;8325;49.284;7.238;2023-12-20T05:35:36;3.85;;;2.75;;
16430;SDS011;8325;49.284;7.238;2023-12-20T05:39:48;3.15;;;2.80;;
16430;SDS011;8325;49.284;7.238;2023-12-20T05:44:00;3.78;;;2.17;;
16430;SDS011;8325;49.284;7.238;2023-12-20T05:48:11;2.70;;;2.50;;
16430;SDS011;8325;49.284;7.238;2023-12-20T05:52:23;3.83;;;2.03;;
16430;SDS011;8325;49.284;7.238;2023-12-20T05:56:34;4.22;;;2.30;;
16430;SDS011;8325;49.284;7.238;2023-12-20T06:00:46;5.28;;;2.15;;
16430;SDS011;8325;49.284;7.238;2023-12-20T06:04:58;5.00;;;1.90;;
16430;SDS011;8325;49.284;7.238;2023-12-20T06:09:10;2.35;;;1.63;;
16430;SDS011;8325;49.284;7.238;2023-12-20T06:13:22;4.82;;;1.90;;
16430;SDS011;8325;49.284;7.238;2023-12-20T06:17:34;4.25;;;2.15;;
16430;SDS011;8325;49.284;7.238;2023-12-20T06:21:46;5.03;;;2.58;;
16430;SDS011;8325;49.284;7.238;2023-12-20T06:25:58;4.40;;;2.88;;
16430;SDS011;8325;49.284;7.238;2023-12-20T06:30:10;5.72;;;3.00;;
16430;SDS011;8325;49.284;7.238;2023-12-20T06:34:21;5.47;;;2.65;;
16430;SDS011;8325;49.284;7.238;2023-12-20T06:38:33;5.22;;;2.60;;
16430;SDS011;8325;49.284;7.238;2023-12-20T06:42:45;9.18;;;2.80;;
16430;SDS011;8325;49.284;7.238;2023-12-20T06:47:12;9.80;;;2.60;;
16430;SDS011;8325;49.284;7.238;2023-12-20T06:51:25;6.03;;;2.20;;
16430;SDS011;8325;49.284;7.238;2023-12-20T06:55:37;4.00;;;2.22;;
16430;SDS011;8325;49.284;7.238;2023-12-20T06:59:49;5.78;;;2.45;;
16430;SDS011;8325;49.284;7.238;2023-12-20T07:04:00;5.22;;;2.47;;
16430;SDS011;8325;49.284;7.238;2023-12-20T07:08:12;3.97;;;1.90;;
16430;SDS011;8325;49.284;7.238;2023-12-20T07:12:25;7.47;;;2.25;;
16430;SDS011;8325;49.284;7.238;2023-12-20T07:16:37;7.47;;;3.65;;
16430;SDS011;8325;49.284;7.238;2023-12-20T07:20:48;5.07;;;2.00;;
16430;SDS011;8325;49.284;7.238;2023-12-20T07:25:00;5.43;;;1.98;;
16430;SDS011;8325;49.284;7.238;2023-12-20T07:29:12;3.10;;;1.70;;
16430;SDS011;8325;49.284;7.238;2023-12-20T07:33:24;4.90;;;2.00;;
16430;SDS011;8325;49.284;7.238;2023-12-20T07:37:35;5.13;;;2.15;;
16430;SDS011;8325;49.284;7.238;2023-12-20T07:41:47;2.47;;;1.65;;
16430;SDS011;8325;49.284;7.238;2023-12-20T07:46:03;6.03;;;1.75;;
16430;SDS011;8325;49.284;7.238;2023-12-20T07:50:15;3.70;;;2.17;;
16430;SDS011;8325;49.284;7.238;2023-12-20T07:54:27;7.43;;;1.95;;
16430;SDS011;8325;49.284;7.238;2023-12-20T07:58:39;13.48;;;2.40;;
16430;SDS011;8325;49.284;7.238;2023-12-20T08:03:02;6.07;;;2.50;;
16430;SDS011;8325;49.284;7.238;2023-12-20T08:07:14;6.97;;;2.70;;
16430;SDS011;8325;49.284;7.238;2023-12-20T08:11:26;8.90;;;2.88;;
16430;SDS011;8325;49.284;7.238;2023-12-20T08:15:38;5.57;;;2.60;;
16430;SDS011;8325;49.284;7.238;2023-12-20T08:19:49;7.10;;;3.20;;
16430;SDS011;8325;49.284;7.238;2023-12-20T08:24:01;6.35;;;2.67;;
16430;SDS011;8325;49.284;7.238;2023-12-20T08:28:12;14.43;;;4.28;;
16430;SDS011;8325;49.284;7.238;2023-12-20T08:32:27;5.07;;;2.90;;
16430;SDS011;8325;49.284;7.238;2023-12-20T08:36:38;4.32;;;2.50;;
16430;SDS011;8325;49.284;7.238;2023-12-20T08:40:50;7.47;;;2.80;;
16430;SDS011;8325;49.284;7.238;2023-12-20T08:45:02;6.25;;;3.42;;
16430;SDS011;8325;49.284;7.238;2023-12-20T08:49:15;8.27;;;3.95;;
16430;SDS011;8325;49.284;7.238;2023-12-20T08:53:27;9.95;;;4.15;;
16430;SDS011;8325;49.284;7.238;2023-12-20T08:57:38;10.88;;;5.13;;
16430;SDS011;8325;49.284;7.238;2023-12-20T09:01:50;12.57;;;6.10;;
16430;SDS011;8325;49.284;7.238;2023-12-20T09:06:06;40.60;;;16.17;;
16430;SDS011;8325;49.284;7.238;2023-12-20T09:10:17;27.95;;;11.77;;
16430;SDS011;8325;49.284;7.238;2023-12-20T09:14:33;13.15;;;7.55;;
16430;SDS011;8325;49.284;7.238;2023-12-20T09:18:45;10.70;;;5.57;;
16430;SDS011;8325;49.284;7.238;2023-12-20T09:22:56;9.38;;;3.97;;
16430;SDS011;8325;49.284;7.238;2023-12-20T09:27:08;7.53;;;2.97;;
16430;SDS011;8325;49.284;7.238;2023-12-20T09:31:20;4.97;;;3.00;;
16430;SDS011;8325;49.284;7.238;2023-12-20T09:35:32;6.95;;;2.80;;
16430;SDS011;8325;49.284;7.238;2023-12-20T09:39:44;7.15;;;2.78;;
16430;SDS011;8325;49.284;7.238;2023-12-20T09:43:55;9.82;;;3.90;;
16430;SDS011;8325;49.284;7.238;2023-12-20T09:48:11;7.82;;;3.33;;
16430;SDS011;8325;49.284;7.238;2023-12-20T09:52:23;9.52;;;3.22;;
16430;SDS011;8325;49.284;7.238;2023-12-20T09:56:35;8.52;;;3.30;;
16430;SDS011;8325;49.284;7.238;2023-12-20T10:00:48;10.40;;;4.40;;
16430;SDS011;8325;49.284;7.238;2023-12-20T10:05:00;6.85;;;3.50;;
16430;SDS011;8325;49.284;7.238;2023-12-20T10:09:14;7.38;;;3.72;;
16430;SDS011;8325;49.284;7.238;2023-12-20T10:13:26;6.93;;;3.30;;
16430;SDS011;8325;49.284;7.238;2023-12-20T10:17:37;7.50;;;2.92;;
16430;SDS011;8325;49.284;7.238;2023-12-20T10:21:49;5.40;;;2.90;;
16430;SDS011;8325;49.284;7.238;2023-12-20T10:26:01;6.35;;;3.67;;
16430;SDS011;8325;49.284;7.238;2023-12-20T10:30:13;7.32;;;3.00;;
16430;SDS011;8325;49.284;7.238;2023-12-20T10:34:25;5.93;;;2.80;;
16430;SDS011;8325;49.284;7.238;2023-12-20T10:38:37;6.78;;;2.67;;
16430;SDS011;8325;49.284;7.238;2023-12-20T10:42:53;4.28;;;2.60;;
16430;SDS011;8325;49.284;7.238;2023-12-20T10:47:05;6.88;;;2.95;;
16430;SDS011;8325;49.284;7.238;2023-12-20T10:51:17;6.00;;;3.03;;
16430;SDS011;8325;49.284;7.238;2023-12-20T10:55:30;7.65;;;2.80;;
16430;SDS011;8325;49.284;7.238;2023-12-20T10:59:42;5.80;;;2.90;;
16430;SDS011;8325;49.284;7.238;2023-12-20T11:04:00;6.13;;;2.70;;
16430;SDS011;8325;49.284;7.238;2023-12-20T11:08:22;3.92;;;2.75;;
16430;SDS011;8325;49.284;7.238;2023-12-20T11:12:44;5.78;;;2.75;;
16430;SDS011;8325;49.284;7.238;2023-12-20T11:17:06;10.27;;;2.88;;
16430;SDS011;8325;49.284;7.238;2023-12-20T11:21:19;12.38;;;3.13;;
16430;SDS011;8325;49.284;7.238;2023-12-20T11:30:00;5.35;;;2.38;;
16430;SDS011;8325;49.284;7.238;2023-12-20T11:34:17;4.53;;;2.47;;
16430;SDS011;8325;49.284;7.238;2023-12-20T11:38:35;6.82;;;2.22;;
16430;SDS011;8325;49.284;7.238;2023-12-20T11:43:00;6.45;;;2.67;;
16430;SDS011;8325;49.284;7.238;2023-12-20T11:47:12;6.90;;;2.00;;
16430;SDS011;8325;49.284;7.238;2023-12-20T11:51:26;6.38;;;4.25;;
16430;SDS011;8325;49.284;7.238;2023-12-20T11:55:39;7.20;;;2.33;;
16430;SDS011;8325;49.284;7.238;2023-12-20T11:59:51;7.18;;;1.95;;
16430;SDS011;8325;49.284;7.238;2023-12-20T12:04:03;2.80;;;1.52;;
16430;SDS011;8325;49.284;7.238;2023-12-20T12:08:16;6.03;;;2.00;;
16430;SDS011;8325;49.284;7.238;2023-12-20T12:12:28;6.18;;;2.28;;
16430;SDS011;8325;49.284;7.238;2023-12-20T12:16:41;6.60;;;2.13;;
16430;SDS011;8325;49.284;7.238;2023-12-20T12:20:59;4.65;;;2.42;;
16430;SDS011;8325;49.284;7.238;2023-12-20T12:25:13;8.43;;;2.05;;
16430;SDS011;8325;49.284;7.238;2023-12-20T12:29:25;4.05;;;1.80;;
16430;SDS011;8325;49.284;7.238;2023-12-20T12:33:37;4.95;;;2.00;;
16430;SDS011;8325;49.284;7.238;2023-12-20T12:37:48;11.10;;;3.08;;
16430;SDS011;8325;49.284;7.238;2023-12-20T12:42:00;6.47;;;2.58;;
16430;SDS011;8325;49.284;7.238;2023-12-20T12:46:12;6.53;;;2.22;;
16430;SDS011;8325;49.284;7.238;2023-12-20T12:50:24;5.22;;;2.53;;
16430;SDS011;8325;49.284;7.238;2023-12-20T12:54:36;7.10;;;3.10;;
16430;SDS011;8325;49.284;7.238;2023-12-20T12:58:47;7.63;;;2.35;;
16430;SDS011;8325;49.284;7.238;2023-12-20T13:02:59;7.47;;;2.95;;
16430;SDS011;8325;49.284;7.238;2023-12-20T13:07:10;8.55;;;2.65;;
16430;SDS011;8325;49.284;7.238;2023-12-20T13:11:23;6.90;;;2.50;;
16430;SDS011;8325;49.284;7.238;2023-12-20T13:15:34;7.25;;;2.38;;
16430;SDS011;8325;49.284;7.238;2023-12-20T13:19:46;7.47;;;2.97;;
16430;SDS011;8325;49.284;7.238;2023-12-20T13:23:58;5.47;;;2.17;;
16430;SDS011;8325;49.284;7.238;2023-12-20T13:28:09;6.38;;;2.30;;
16430;SDS011;8325;49.284;7.238;2023-12-20T13:32:21;7.15;;;2.20;;
16430;SDS011;8325;49.284;7.238;2023-12-20T13:36:33;5.88;;;2.28;;
16430;SDS011;8325;49.284;7.238;2023-12-20T13:40:45;6.95;;;2.20;;
16430;SDS011;8325;49.284;7.238;2023-12-20T13:44:56;4.15;;;2.10;;
16430;SDS011;8325;49.284;7.238;2023-12-20T13:49:08;4.30;;;2.08;;
16430;SDS011;8325;49.284;7.238;2023-12-20T13:53:20;5.72;;;2.00;;
16430;SDS011;8325;49.284;7.238;2023-12-20T13:57:32;6.95;;;2.63;;
16430;SDS011;8325;49.284;7.238;2023-12-20T14:01:47;8.15;;;2.00;;
16430;SDS011;8325;49.284;7.238;2023-12-20T14:06:00;5.43;;;2.17;;
16430;SDS011;8325;49.284;7.238;2023-12-20T14:10:13;4.80;;;2.00;;
16430;SDS011;8325;49.284;7.238;2023-12-20T14:14:25;7.60;;;1.83;;
16430;SDS011;8325;49.284;7.238;2023-12-20T14:18:36;6.30;;;2.03;;
16430;SDS011;8325;49.284;7.238;2023-12-20T14:22:48;6.85;;;2.20;;
16430;SDS011;8325;49.284;7.238;2023-12-20T14:27:00;7.18;;;2.50;;
16430;SDS011;8325;49.284;7.238;2023-12-20T14:31:11;4.80;;;2.40;;
16430;SDS011;8325;49.284;7.238;2023-12-20T14:35:23;6.18;;;2.30;;
16430;SDS011;8325;49.284;7.238;2023-12-20T14:39:35;8.77;;;2.40;;
16430;SDS011;8325;49.284;7.238;2023-12-20T14:43:50;7.00;;;2.78;;
16430;SDS011;8325;49.284;7.238;2023-12-20T14:48:05;7.78;;;2.65;;
16430;SDS011;8325;49.284;7.238;2023-12-20T14:52:17;6.50;;;2.85;;
16430;SDS011;8325;49.284;7.238;2023-12-20T14:56:30;8.20;;;2.58;;
16430;SDS011;8325;49.284;7.238;2023-12-20T15:00:41;8.10;;;2.70;;
16430;SDS011;8325;49.284;7.238;2023-12-20T15:04:54;7.35;;;2.42;;
16430;SDS011;8325;49.284;7.238;2023-12-20T15:09:05;5.75;;;2.67;;
16430;SDS011;8325;49.284;7.238;2023-12-20T15:13:17;16.73;;;3.15;;
16430;SDS011;8325;49.284;7.238;2023-12-20T15:17:28;6.72;;;3.40;;
16430;SDS011;8325;49.284;7.238;2023-12-20T15:21:40;13.40;;;4.88;;
16430;SDS011;8325;49.284;7.238;2023-12-20T15:25:58;8.25;;;3.30;;
16430;SDS011;8325;49.284;7.238;2023-12-20T15:30:09;5.95;;;3.03;;
16430;SDS011;8325;49.284;7.238;2023-12-20T15:34:21;8.35;;;2.60;;
16430;SDS011;8325;49.284;7.238;2023-12-20T15:38:33;7.20;;;3.22;;
16430;SDS011;8325;49.284;7.238;2023-12-20T15:42:46;9.43;;;3.35;;
16430;SDS011;8325;49.284;7.238;2023-12-20T15:46:57;7.25;;;2.70;;
16430;SDS011;8325;49.284;7.238;2023-12-20T15:51:09;8.55;;;3.15;;
16430;SDS011;8325;49.284;7.238;2023-12-20T15:55:21;6.07;;;3.15;;
16430;SDS011;8325;49.284;7.238;2023-12-20T15:59:33;7.15;;;2.70;;
16430;SDS011;8325;49.284;7.238;2023-12-20T16:03:44;4.57;;;2.33;;
16430;SDS011;8325;49.284;7.238;2023-12-20T16:08:06;8.40;;;2.70;;
16430;SDS011;8325;49.284;7.238;2023-12-20T16:12:18;7.43;;;2.58;;
16430;SDS011;8325;49.284;7.238;2023-12-20T16:16:30;7.35;;;2.83;;
16430;SDS011;8325;49.284;7.238;2023-12-20T16:20:41;7.90;;;2.70;;
16430;SDS011;8325;49.284;7.238;2023-12-20T16:24:53;7.60;;;2.95;;
16430;SDS011;8325;49.284;7.238;2023-12-20T16:29:05;7.47;;;3.10;;
16430;SDS011;8325;49.284;7.238;2023-12-20T16:33:16;10.77;;;3.00;;
16430;SDS011;8325;49.284;7.238;2023-12-20T16:37:28;9.55;;;3.50;;
16430;SDS011;8325;49.284;7.238;2023-12-20T16:41:40;10.93;;;4.00;;
16430;SDS011;8325;49.284;7.238;2023-12-20T16:45:52;6.00;;;3.40;;
16430;SDS011;8325;49.284;7.238;2023-12-20T16:50:04;10.30;;;4.03;;
16430;SDS011;8325;49.284;7.238;2023-12-20T16:54:17;5.18;;;3.80;;
16430;SDS011;8325;49.284;7.238;2023-12-20T16:58:29;10.32;;;4.25;;
16430;SDS011;8325;49.284;7.238;2023-12-20T17:02:41;7.80;;;3.80;;
16430;SDS011;8325;49.284;7.238;2023-12-20T17:06:53;9.32;;;3.53;;
16430;SDS011;8325;49.284;7.238;2023-12-20T17:11:04;9.60;;;3.65;;
16430;SDS011;8325;49.284;7.238;2023-12-20T17:15:16;7.68;;;3.47;;
16430;SDS011;8325;49.284;7.238;2023-12-20T17:19:27;8.55;;;3.40;;
16430;SDS011;8325;49.284;7.238;2023-12-20T17:23:41;11.85;;;3.60;;
16430;SDS011;8325;49.284;7.238;2023-12-20T17:27:54;10.88;;;3.88;;
16430;SDS011;8325;49.284;7.238;2023-12-20T17:32:07;9.07;;;3.92;;
16430;SDS011;8325;49.284;7.238;2023-12-20T17:36:19;6.40;;;3.60;;
16430;SDS011;8325;49.284;7.238;2023-12-20T17:40:31;8.65;;;4.47;;
16430;SDS011;8325;49.284;7.238;2023-12-20T17:44:42;7.82;;;3.45;;
16430;SDS011;8325;49.284;7.238;2023-12-20T17:48:54;8.85;;;4.25;;
16430;SDS011;8325;49.284;7.238;2023-12-20T17:53:07;10.18;;;4.13;;
16430;SDS011;8325;49.284;7.238;2023-12-20T17:57:18;8.77;;;3.88;;
16430;SDS011;8325;49.284;7.238;2023-12-20T18:01:30;11.10;;;4.15;;
16430;SDS011;8325;49.284;7.238;2023-12-20T18:05:42;9.55;;;4.07;;
16430;SDS011;8325;49.284;7.238;2023-12-20T18:09:53;7.72;;;4.28;;
16430;SDS011;8325;49.284;7.238;2023-12-20T18:14:05;9.80;;;3.83;;
16430;SDS011;8325;49.284;7.238;2023-12-20T18:18:17;6.95;;;4.05;;
16430;SDS011;8325;49.284;7.238;2023-12-20T18:22:28;8.50;;;4.15;;
16430;SDS011;8325;49.284;7.238;2023-12-20T18:26:40;10.68;;;4.18;;
16430;SDS011;8325;49.284;7.238;2023-12-20T18:30:52;8.38;;;4.68;;
16430;SDS011;8325;49.284;7.238;2023-12-20T18:35:04;9.43;;;4.20;;
16430;SDS011;8325;49.284;7.238;2023-12-20T18:39:16;9.05;;;4.25;;
16430;SDS011;8325;49.284;7.238;2023-12-20T18:43:27;10.10;;;4.68;;
16430;SDS011;8325;49.284;7.238;2023-12-20T18:47:39;8.15;;;4.55;;
16430;SDS011;8325;49.284;7.238;2023-12-20T18:51:51;7.65;;;4.20;;
16430;SDS011;8325;49.284;7.238;2023-12-20T18:56:03;9.43;;;5.00;;
16430;SDS011;8325;49.284;7.238;2023-12-20T19:00:15;8.95;;;4.53;;
16430;SDS011;8325;49.284;7.238;2023-12-20T19:04:26;6.55;;;4.70;;
16430;SDS011;8325;49.284;7.238;2023-12-20T19:08:38;9.50;;;5.10;;
16430;SDS011;8325;49.284;7.238;2023-12-20T19:12:51;11.05;;;5.40;;
16430;SDS011;8325;49.284;7.238;2023-12-20T19:17:02;11.50;;;6.68;;
16430;SDS011;8325;49.284;7.238;2023-12-20T19:21:15;11.63;;;5.32;;
16430;SDS011;8325;49.284;7.238;2023-12-20T19:25:28;13.35;;;5.78;;
16430;SDS011;8325;49.284;7.238;2023-12-20T19:29:40;8.27;;;5.68;;
16430;SDS011;8325;49.284;7.238;2023-12-20T19:33:51;11.50;;;5.63;;
16430;SDS011;8325;49.284;7.238;2023-12-20T19:38:04;12.10;;;5.78;;
16430;SDS011;8325;49.284;7.238;2023-12-20T19:42:16;11.43;;;5.40;;
16430;SDS011;8325;49.284;7.238;2023-12-20T19:46:28;10.43;;;5.57;;
16430;SDS011;8325;49.284;7.238;2023-12-20T19:50:40;9.23;;;4.78;;
16430;SDS011;8325;49.284;7.238;2023-12-20T19:54:51;9.85;;;5.13;;
16430;SDS011;8325;49.284;7.238;2023-12-20T19:59:03;8.88;;;3.80;;
16430;SDS011;8325;49.284;7.238;2023-12-20T20:03:14;6.45;;;4.03;;
16430;SDS011;8325;49.284;7.238;2023-12-20T20:07:26;7.38;;;4.53;;
16430;SDS011;8325;49.284;7.238;2023-12-20T20:11:38;7.47;;;5.35;;
16430;SDS011;8325;49.284;7.238;2023-12-20T20:15:49;9.10;;;5.18;;
16430;SDS011;8325;49.284;7.238;2023-12-20T20:20:01;6.60;;;4.60;;
16430;SDS011;8325;49.284;7.238;2023-12-20T20:24:14;7.93;;;4.18;;
16430;SDS011;8325;49.284;7.238;2023-12-20T20:28:25;6.95;;;4.43;;
16430;SDS011;8325;49.284;7.238;2023-12-20T20:32:39;7.50;;;4.32;;
16430;SDS011;8325;49.284;7.238;2023-12-20T20:36:51;5.45;;;4.28;;
16430;SDS011;8325;49.284;7.238;2023-12-20T20:41:03;6.25;;;3.90;;
16430;SDS011;8325;49.284;7.238;2023-12-20T20:45:14;7.43;;;4.40;;
16430;SDS011;8325;49.284;7.238;2023-12-20T20:49:26;6.97;;;4.57;;
16430;SDS011;8325;49.284;7.238;2023-12-20T20:53:40;7.18;;;4.30;;
16430;SDS011;8325;49.284;7.238;2023-12-20T20:57:51;7.45;;;4.43;;
16430;SDS011;8325;49.284;7.238;2023-12-20T21:02:03;6.78;;;4.38;;
16430;SDS011;8325;49.284;7.238;2023-12-20T21:06:15;7.57;;;3.88;;
16430;SDS011;8325;49.284;7.238;2023-12-20T21:10:27;6.53;;;4.30;;
16430;SDS011;8325;49.284;7.238;2023-12-20T21:14:38;7.45;;;4.35;;
16430;SDS011;8325;49.284;7.238;2023-12-20T21:18:50;6.10;;;4.20;;
16430;SDS011;8325;49.284;7.238;2023-12-20T21:23:01;6.35;;;4.00;;
16430;SDS011;8325;49.284;7.238;2023-12-20T21:27:15;7.75;;;4.50;;
16430;SDS011;8325;49.284;7.238;2023-12-20T21:31:26;5.47;;;3.65;;
16430;SDS011;8325;49.284;7.238;2023-12-20T21:35:38;9.15;;;4.07;;
16430;SDS011;8325;49.284;7.238;2023-12-20T21:39:49;6.60;;;4.40;;
16430;SDS011;8325;49.284;7.238;2023-12-20T21:44:01;10.20;;;5.28;;
16430;SDS011;8325;49.284;7.238;2023-12-20T21:48:13;6.68;;;4.30;;
16430;SDS011;8325;49.284;7.238;2023-12-20T21:52:24;4.28;;;3.33;;
16430;SDS011;8325;49.284;7.238;2023-12-20T21:56:36;9.55;;;3.50;;
16430;SDS011;8325;49.284;7.238;2023-12-20T22:00:48;4.10;;;3.13;;
16430;SDS011;8325;49.284;7.238;2023-12-20T22:05:00;5.40;;;3.55;;
16430;SDS011;8325;49.284;7.238;2023-12-20T22:09:11;4.40;;;3.20;;
16430;SDS011;8325;49.284;7.238;2023-12-20T22:13:25;5.18;;;3.10;;
16430;SDS011;8325;49.284;7.238;2023-12-20T22:17:42;3.10;;;2.70;;
16430;SDS011;8325;49.284;7.238;2023-12-20T22:21:53;5.47;;;3.22;;
16430;SDS011;8325;49.284;7.238;2023-12-20T22:26:05;3.75;;;2.35;;
